Edwards Air Force Base
KEDW : rendu visible

Aérodrome :











RETROUVEZ-NOUS SUR...

 
LOGIN :

S'inscrire | Disclaimer

   EN    FR    IT 

 









Légende :    VFR   VFR Marginal   IFR   IFR Intensif   IFR Très Intensif
Visi : 
Plafond : 
>= 8 km
>= 3000ft
5 à 8 km
1000 à 3000 ft
1500m à 5 km
500 à 1000 ft
800 à 1500m
200 à 500 ft
< 800m
< 200 ft
Symboles :   Orages  Brouillard  Fortes neiges  Fortes précipitations  Vent > 20 kt






- Altitude de l'aérodrome : 2312 ft


KEDW - Edwards Air Force Base

DERNIER METAR :
  • 250758Z AUTO 25006KT 10SM CLR 01/M10 A3011 RMK AO2 SLP198 T00121097 401770004

METARs EXPIRÉS :
  • 250658Z AUTO 27006KT 10SM CLR 04/M08 A3011 RMK AO2 SLP198 T00391082
  • 250558Z 00000KT 50SM CLR 03/M11 A3011 RMK AO2A SLP202 T00251114 10169 20025 52005

TAF TAF KEDW
Valide du 25 à 06h jusqu'au 26 à 12h UTC


250600Z 2506/2612 VRB06KT 9999 SKC QNH3006INS
BECMG 2519/2601 25018G28KT 9999 SKC QNH3002INS
BECMG 2602/2603 VRB06KT 9999 SKC QNH3003INS TX20/2522Z TNM01/2514Z LAST NO AMDS AFT 2506 NEXT 2514
FIR KZLA / Amérique du Nord



MET'MAP, la Météo Aéronautique d'un coup d'oeil ! - Copyright ORBIFLY Décembre 2007 - Disclaimer

ORBIFLY MET'MAP TEAM :

Programmation & Développement : Alexandra Zaïnal
Sur une idée originale de : Baudouin d'Aumeries
Assistance à la programmation : Marc-Olivier Méhu
Soutien technique & logistique : Manuel Goepfert

Contact : metmap@orbifly.com




SOURCES & CREDITS :

   NOAA       Earth
Advisory